sensor_id;sensor_type;location;lat;lon;timestamp;pressure;altitude;pressure_sealevel;temperature
35960;BMP280;22043;50.970;7.192;2023-04-24T00:01:26;97836.91;;;11.67
35960;BMP280;22043;50.970;7.192;2023-04-24T00:03:51;97831.31;;;11.70
35960;BMP280;22043;50.970;7.192;2023-04-24T00:06:17;97835.72;;;11.77
35960;BMP280;22043;50.970;7.192;2023-04-24T00:08:43;97835.88;;;11.73
35960;BMP280;22043;50.970;7.192;2023-04-24T00:11:08;97835.88;;;11.73
35960;BMP280;22043;50.970;7.192;2023-04-24T00:13:34;97827.38;;;11.71
35960;BMP280;22043;50.970;7.192;2023-04-24T00:16:00;97833.16;;;11.73
35960;BMP280;22043;50.970;7.192;2023-04-24T00:18:26;97827.69;;;11.73
35960;BMP280;22043;50.970;7.192;2023-04-24T00:20:51;97836.78;;;11.70
35960;BMP280;22043;50.970;7.192;2023-04-24T00:23:17;97827.69;;;11.73
35960;BMP280;22043;50.970;7.192;2023-04-24T00:25:42;97827.38;;;11.71
35960;BMP280;22043;50.970;7.192;2023-04-24T00:28:07;97819.78;;;11.66
35960;BMP280;22043;50.970;7.192;2023-04-24T00:30:33;97824.03;;;11.76
35960;BMP280;22043;50.970;7.192;2023-04-24T00:32:59;97822.22;;;11.73
35960;BMP280;22043;50.970;7.192;2023-04-24T00:35:24;97821.31;;;11.76
35960;BMP280;22043;50.970;7.192;2023-04-24T00:37:51;97828.63;;;11.79
35960;BMP280;22043;50.970;7.192;2023-04-24T00:40:16;97819.69;;;11.79
35960;BMP280;22043;50.970;7.192;2023-04-24T00:42:43;97809.94;;;11.78
35960;BMP280;22043;50.970;7.192;2023-04-24T00:45:09;97808.00;;;11.78
35960;BMP280;22043;50.970;7.192;2023-04-24T00:47:35;97808.88;;;11.75
35960;BMP280;22043;50.970;7.192;2023-04-24T00:50:05;97814.19;;;11.70
35960;BMP280;22043;50.970;7.192;2023-04-24T00:52:32;97812.22;;;11.70
35960;BMP280;22043;50.970;7.192;2023-04-24T00:54:58;97805.22;;;11.69
35960;BMP280;22043;50.970;7.192;2023-04-24T00:57:23;97814.50;;;11.72
35960;BMP280;22043;50.970;7.192;2023-04-24T00:59:50;97814.66;;;11.77
35960;BMP280;22043;50.970;7.192;2023-04-24T01:02:17;97795.38;;;11.63
35960;BMP280;22043;50.970;7.192;2023-04-24T01:04:43;97810.09;;;11.74
35960;BMP280;22043;50.970;7.192;2023-04-24T01:07:09;97805.84;;;11.73
35960;BMP280;22043;50.970;7.192;2023-04-24T01:09:42;97798.56;;;11.70
35960;BMP280;22043;50.970;7.192;2023-04-24T01:12:12;97798.13;;;11.72
35960;BMP280;22043;50.970;7.192;2023-04-24T01:14:37;97797.94;;;11.66
35960;BMP280;22043;50.970;7.192;2023-04-24T01:17:03;97801.31;;;11.70
35960;BMP280;22043;50.970;7.192;2023-04-24T01:19:29;97812.06;;;11.74
35960;BMP280;22043;50.970;7.192;2023-04-24T01:21:58;97807.06;;;11.72
35960;BMP280;22043;50.970;7.192;2023-04-24T01:24:24;97810.84;;;11.75
35960;BMP280;22043;50.970;7.192;2023-04-24T01:26:50;97802.38;;;11.73
35960;BMP280;22043;50.970;7.192;2023-04-24T01:29:17;97792.94;;;11.65
35960;BMP280;22043;50.970;7.192;2023-04-24T01:31:43;97809.78;;;11.72
35960;BMP280;22043;50.970;7.192;2023-04-24T01:34:09;97810.69;;;11.69
35960;BMP280;22043;50.970;7.192;2023-04-24T01:36:35;97817.03;;;11.66
35960;BMP280;22043;50.970;7.192;2023-04-24T01:39:01;97812.81;;;11.65
35960;BMP280;22043;50.970;7.192;2023-04-24T01:41:28;97820.22;;;11.65
35960;BMP280;22043;50.970;7.192;2023-04-24T01:43:53;97820.97;;;11.65
35960;BMP280;22043;50.970;7.192;2023-04-24T01:46:20;97828.44;;;11.74
35960;BMP280;22043;50.970;7.192;2023-04-24T01:48:45;97819.78;;;11.66
35960;BMP280;22043;50.970;7.192;2023-04-24T01:51:11;97832.19;;;11.67
35960;BMP280;22043;50.970;7.192;2023-04-24T01:53:37;97812.78;;;11.56
35960;BMP280;22043;50.970;7.192;2023-04-24T01:56:02;97805.91;;;11.51
35960;BMP280;22043;50.970;7.192;2023-04-24T01:58:28;97824.63;;;11.62
35960;BMP280;22043;50.970;7.192;2023-04-24T02:00:56;97816.72;;;11.55
35960;BMP280;22043;50.970;7.192;2023-04-24T02:03:22;97819.78;;;11.57
35960;BMP280;22043;50.970;7.192;2023-04-24T02:05:48;97820.31;;;11.52
35960;BMP280;22043;50.970;7.192;2023-04-24T02:08:13;97817.31;;;11.50
35960;BMP280;22043;50.970;7.192;2023-04-24T02:10:39;97809.09;;;11.41
35960;BMP280;22043;50.970;7.192;2023-04-24T02:13:04;97810.63;;;11.42
35960;BMP280;22043;50.970;7.192;2023-04-24T02:15:30;97819.72;;;11.48
35960;BMP280;22043;50.970;7.192;2023-04-24T02:17:55;97814.38;;;11.44
35960;BMP280;22043;50.970;7.192;2023-04-24T02:20:21;97816.50;;;11.40
35960;BMP280;22043;50.970;7.192;2023-04-24T02:22:46;97815.72;;;11.40
35960;BMP280;22043;50.970;7.192;2023-04-24T02:25:12;97811.00;;;11.31
35960;BMP280;22043;50.970;7.192;2023-04-24T02:27:37;97817.50;;;11.25
35960;BMP280;22043;50.970;7.192;2023-04-24T02:30:05;97826.59;;;11.31
35960;BMP280;22043;50.970;7.192;2023-04-24T02:32:31;97840.19;;;11.21
35960;BMP280;22043;50.970;7.192;2023-04-24T02:34:57;97829.25;;;11.12
35960;BMP280;22043;50.970;7.192;2023-04-24T02:37:22;97845.28;;;11.10
35960;BMP280;22043;50.970;7.192;2023-04-24T02:39:48;97845.56;;;11.03
35960;BMP280;22043;50.970;7.192;2023-04-24T02:42:13;97843.84;;;10.97
35960;BMP280;22043;50.970;7.192;2023-04-24T02:44:38;97844.66;;;10.84
35960;BMP280;22043;50.970;7.192;2023-04-24T02:47:04;97843.28;;;10.80
35960;BMP280;22043;50.970;7.192;2023-04-24T02:49:30;97854.94;;;10.80
35960;BMP280;22043;50.970;7.192;2023-04-24T02:51:57;97871.28;;;10.80
35960;BMP280;22043;50.970;7.192;2023-04-24T02:54:23;97877.38;;;10.84
35960;BMP280;22043;50.970;7.192;2023-04-24T02:56:48;97859.75;;;10.76
35960;BMP280;22043;50.970;7.192;2023-04-24T02:59:14;97872.50;;;10.79
35960;BMP280;22043;50.970;7.192;2023-04-24T03:01:39;97858.53;;;10.77
35960;BMP280;22043;50.970;7.192;2023-04-24T03:04:05;97868.31;;;10.87
35960;BMP280;22043;50.970;7.192;2023-04-24T03:06:30;97876.59;;;10.84
35960;BMP280;22043;50.970;7.192;2023-04-24T03:08:58;97880.97;;;10.81
35960;BMP280;22043;50.970;7.192;2023-04-24T03:11:24;97876.75;;;10.80
35960;BMP280;22043;50.970;7.192;2023-04-24T03:13:50;97872.28;;;10.74
35960;BMP280;22043;50.970;7.192;2023-04-24T03:16:15;97875.22;;;10.79
35960;BMP280;22043;50.970;7.192;2023-04-24T03:18:41;97875.47;;;10.72
35960;BMP280;22043;50.970;7.192;2023-04-24T03:21:08;97881.69;;;10.73
35960;BMP280;22043;50.970;7.192;2023-04-24T03:23:34;97874.25;;;10.73
35960;BMP280;22043;50.970;7.192;2023-04-24T03:25:59;97880.19;;;10.81
35960;BMP280;22043;50.970;7.192;2023-04-24T03:28:25;97888.28;;;10.84
35960;BMP280;22043;50.970;7.192;2023-04-24T03:30:56;97896.03;;;10.86
35960;BMP280;22043;50.970;7.192;2023-04-24T03:33:23;97880.97;;;10.81
35960;BMP280;22043;50.970;7.192;2023-04-24T03:35:58;97875.56;;;10.69
35960;BMP280;22043;50.970;7.192;2023-04-24T03:38:24;97887.50;;;10.62
35960;BMP280;22043;50.970;7.192;2023-04-24T03:41:02;97909.16;;;10.65
35960;BMP280;22043;50.970;7.192;2023-04-24T03:43:43;97889.66;;;10.67
35960;BMP280;22043;50.970;7.192;2023-04-24T03:46:10;97881.28;;;10.61
35960;BMP280;22043;50.970;7.192;2023-04-24T03:48:39;97904.69;;;10.72
35960;BMP280;22043;50.970;7.192;2023-04-24T03:51:06;97899.59;;;10.61
35960;BMP280;22043;50.970;7.192;2023-04-24T03:53:33;97892.19;;;10.61
35960;BMP280;22043;50.970;7.192;2023-04-24T03:55:59;97890.31;;;10.58
35960;BMP280;22043;50.970;7.192;2023-04-24T03:58:26;97890.63;;;10.60
35960;BMP280;22043;50.970;7.192;2023-04-24T04:00:53;97896.09;;;10.60
35960;BMP280;22043;50.970;7.192;2023-04-24T04:03:37;97893.06;;;10.58
35960;BMP280;22043;50.970;7.192;2023-04-24T04:06:03;97888.81;;;10.57
35960;BMP280;22043;50.970;7.192;2023-04-24T04:08:29;97886.22;;;10.54
35960;BMP280;22043;50.970;7.192;2023-04-24T04:10:55;97889.88;;;10.60
35960;BMP280;22043;50.970;7.192;2023-04-24T04:13:22;97884.94;;;10.46
35960;BMP280;22043;50.970;7.192;2023-04-24T04:15:48;97891.44;;;10.48
35960;BMP280;22043;50.970;7.192;2023-04-24T04:18:13;97909.28;;;10.62
35960;BMP280;22043;50.970;7.192;2023-04-24T04:20:39;97916.56;;;10.65
35960;BMP280;22043;50.970;7.192;2023-04-24T04:23:05;97917.13;;;10.60
35960;BMP280;22043;50.970;7.192;2023-04-24T04:25:43;97899.38;;;10.55
35960;BMP280;22043;50.970;7.192;2023-04-24T04:28:09;97889.72;;;10.42
35960;BMP280;22043;50.970;7.192;2023-04-24T04:30:34;97897.34;;;10.47
35960;BMP280;22043;50.970;7.192;2023-04-24T04:33:02;97909.00;;;10.47
35960;BMP280;22043;50.970;7.192;2023-04-24T04:35:29;97897.88;;;10.42
35960;BMP280;22043;50.970;7.192;2023-04-24T04:37:55;97917.69;;;10.55
35960;BMP280;22043;50.970;7.192;2023-04-24T04:40:39;97917.81;;;10.51
35960;BMP280;22043;50.970;7.192;2023-04-24T04:43:06;97908.03;;;10.41
35960;BMP280;22043;50.970;7.192;2023-04-24T04:45:40;97921.63;;;10.54
35960;BMP280;22043;50.970;7.192;2023-04-24T04:48:30;97925.09;;;10.54
35960;BMP280;22043;50.970;7.192;2023-04-24T04:51:01;97907.16;;;10.44
35960;BMP280;22043;50.970;7.192;2023-04-24T04:53:30;97911.19;;;10.40
35960;BMP280;22043;50.970;7.192;2023-04-24T04:55:56;97932.53;;;10.54
35960;BMP280;22043;50.970;7.192;2023-04-24T05:01:13;97898.88;;;10.35
35960;BMP280;22043;50.970;7.192;2023-04-24T05:03:45;97921.31;;;10.39
35960;BMP280;22043;50.970;7.192;2023-04-24T05:06:18;97920.66;;;10.35
35960;BMP280;22043;50.970;7.192;2023-04-24T05:08:45;97924.81;;;10.40
35960;BMP280;22043;50.970;7.192;2023-04-24T05:11:34;97919.81;;;10.38
35960;BMP280;22043;50.970;7.192;2023-04-24T05:14:01;97914.34;;;10.38
35960;BMP280;22043;50.970;7.192;2023-04-24T05:16:39;97913.28;;;10.35
35960;BMP280;22043;50.970;7.192;2023-04-24T05:19:08;97927.75;;;10.45
35960;BMP280;22043;50.970;7.192;2023-04-24T05:21:43;97939.28;;;10.49
35960;BMP280;22043;50.970;7.192;2023-04-24T05:24:10;97922.22;;;10.36
35960;BMP280;22043;50.970;7.192;2023-04-24T05:26:59;97923.50;;;10.31
35960;BMP280;22043;50.970;7.192;2023-04-24T05:29:34;97918.50;;;10.30
35960;BMP280;22043;50.970;7.192;2023-04-24T05:32:03;97928.81;;;10.35
35960;BMP280;22043;50.970;7.192;2023-04-24T05:34:30;97933.19;;;10.32
35960;BMP280;22043;50.970;7.192;2023-04-24T05:36:57;97927.88;;;10.29
35960;BMP280;22043;50.970;7.192;2023-04-24T05:39:22;97947.13;;;10.34
35960;BMP280;22043;50.970;7.192;2023-04-24T05:41:51;97954.53;;;10.34
35960;BMP280;22043;50.970;7.192;2023-04-24T05:44:21;97926.13;;;10.22
35960;BMP280;22043;50.970;7.192;2023-04-24T05:46:49;97942.69;;;10.28
35960;BMP280;22043;50.970;7.192;2023-04-24T05:49:16;97954.22;;;10.32
35960;BMP280;22043;50.970;7.192;2023-04-24T05:51:42;97942.25;;;10.17
35960;BMP280;22043;50.970;7.192;2023-04-24T05:54:08;97931.94;;;10.12
35960;BMP280;22043;50.970;7.192;2023-04-24T05:56:34;97946.75;;;10.11
35960;BMP280;22043;50.970;7.192;2023-04-24T05:59:03;97942.81;;;9.99
35960;BMP280;22043;50.970;7.192;2023-04-24T06:01:34;97940.41;;;10.01
35960;BMP280;22043;50.970;7.192;2023-04-24T06:04:08;97934.66;;;9.86
35960;BMP280;22043;50.970;7.192;2023-04-24T06:06:34;97937.56;;;9.79
35960;BMP280;22043;50.970;7.192;2023-04-24T06:09:00;97958.13;;;9.80
35960;BMP280;22043;50.970;7.192;2023-04-24T06:11:31;97943.19;;;9.59
35960;BMP280;22043;50.970;7.192;2023-04-24T06:13:58;97956.16;;;9.68
35960;BMP280;22043;50.970;7.192;2023-04-24T06:16:43;97963.63;;;9.64
35960;BMP280;22043;50.970;7.192;2023-04-24T06:19:21;97963.63;;;9.51
35960;BMP280;22043;50.970;7.192;2023-04-24T06:24:50;97956.41;;;9.32
35960;BMP280;22043;50.970;7.192;2023-04-24T06:27:20;97963.53;;;9.25
35960;BMP280;22043;50.970;7.192;2023-04-24T06:29:46;97951.75;;;9.16
35960;BMP280;22043;50.970;7.192;2023-04-24T06:32:49;97971.28;;;9.27
35960;BMP280;22043;50.970;7.192;2023-04-24T06:35:14;97957.88;;;9.20
35960;BMP280;22043;50.970;7.192;2023-04-24T06:37:42;97960.16;;;9.21
35960;BMP280;22043;50.970;7.192;2023-04-24T06:40:13;97963.88;;;9.28
35960;BMP280;22043;50.970;7.192;2023-04-24T06:42:40;97970.06;;;9.28
35960;BMP280;22043;50.970;7.192;2023-04-24T06:45:08;97977.28;;;9.35
35960;BMP280;22043;50.970;7.192;2023-04-24T06:47:36;97970.56;;;9.39
35960;BMP280;22043;50.970;7.192;2023-04-24T06:50:01;97960.19;;;9.34
35960;BMP280;22043;50.970;7.192;2023-04-24T06:52:27;97972.56;;;9.22
35960;BMP280;22043;50.970;7.192;2023-04-24T06:54:52;97969.19;;;9.18
35960;BMP280;22043;50.970;7.192;2023-04-24T06:57:24;97977.50;;;9.11
35960;BMP280;22043;50.970;7.192;2023-04-24T06:59:51;97977.94;;;9.10
35960;BMP280;22043;50.970;7.192;2023-04-24T07:02:16;97992.63;;;9.12
35960;BMP280;22043;50.970;7.192;2023-04-24T07:05:11;97979.53;;;9.07
35960;BMP280;22043;50.970;7.192;2023-04-24T07:07:52;97973.34;;;9.07
35960;BMP280;22043;50.970;7.192;2023-04-24T07:10:34;97984.63;;;9.21
35960;BMP280;22043;50.970;7.192;2023-04-24T07:13:09;97968.94;;;9.13
35960;BMP280;22043;50.970;7.192;2023-04-24T07:16:08;97987.09;;;9.16
35960;BMP280;22043;50.970;7.192;2023-04-24T07:19:06;97966.88;;;9.17
35960;BMP280;22043;50.970;7.192;2023-04-24T07:21:34;97964.50;;;9.19
35960;BMP280;22043;50.970;7.192;2023-04-24T07:24:00;97990.31;;;9.27
35960;BMP280;22043;50.970;7.192;2023-04-24T07:26:27;97965.69;;;9.18
35960;BMP280;22043;50.970;7.192;2023-04-24T07:28:53;97980.38;;;9.20
35960;BMP280;22043;50.970;7.192;2023-04-24T07:31:23;98003.53;;;9.25
35960;BMP280;22043;50.970;7.192;2023-04-24T07:33:54;97982.75;;;9.18
35960;BMP280;22043;50.970;7.192;2023-04-24T07:36:23;97991.59;;;9.22
35960;BMP280;22043;50.970;7.192;2023-04-24T07:38:49;97992.44;;;9.19
35960;BMP280;22043;50.970;7.192;2023-04-24T07:41:26;97986.47;;;9.24
35960;BMP280;22043;50.970;7.192;2023-04-24T07:43:54;97990.63;;;9.29
35960;BMP280;22043;50.970;7.192;2023-04-24T07:46:20;97997.41;;;9.37
35960;BMP280;22043;50.970;7.192;2023-04-24T07:48:52;97987.44;;;9.18
35960;BMP280;22043;50.970;7.192;2023-04-24T07:51:23;98022.34;;;9.19
35960;BMP280;22043;50.970;7.192;2023-04-24T07:53:49;98000.66;;;9.16
35960;BMP280;22043;50.970;7.192;2023-04-24T08:03:54;98022.34;;;8.87
35960;BMP280;22043;50.970;7.192;2023-04-24T08:09:22;98037.41;;;8.75
35960;BMP280;22043;50.970;7.192;2023-04-24T08:12:03;98054.72;;;8.81
35960;BMP280;22043;50.970;7.192;2023-04-24T08:14:43;98072.72;;;8.75
35960;BMP280;22043;50.970;7.192;2023-04-24T08:17:12;98063.78;;;8.75
35960;BMP280;22043;50.970;7.192;2023-04-24T08:19:46;98044.56;;;8.49
35960;BMP280;22043;50.970;7.192;2023-04-24T08:22:28;98067.81;;;8.50
35960;BMP280;22043;50.970;7.192;2023-04-24T08:25:23;98083.06;;;8.64
35960;BMP280;22043;50.970;7.192;2023-04-24T08:27:50;98084.66;;;8.61
35960;BMP280;22043;50.970;7.192;2023-04-24T08:30:31;98092.75;;;8.65
35960;BMP280;22043;50.970;7.192;2023-04-24T08:33:06;98069.63;;;8.57
35960;BMP280;22043;50.970;7.192;2023-04-24T08:35:34;98077.09;;;8.53
35960;BMP280;22043;50.970;7.192;2023-04-24T08:38:00;98087.00;;;8.43
35960;BMP280;22043;50.970;7.192;2023-04-24T08:40:43;98080.19;;;8.35
35960;BMP280;22043;50.970;7.192;2023-04-24T08:43:12;98105.81;;;8.34
35960;BMP280;22043;50.970;7.192;2023-04-24T08:46:00;98087.28;;;8.29
35960;BMP280;22043;50.970;7.192;2023-04-24T08:48:26;98093.50;;;8.29
35960;BMP280;22043;50.970;7.192;2023-04-24T08:50:52;98112.63;;;8.42
35960;BMP280;22043;50.970;7.192;2023-04-24T08:53:18;98113.38;;;8.43
35960;BMP280;22043;50.970;7.192;2023-04-24T08:55:58;98088.22;;;8.22
35960;BMP280;22043;50.970;7.192;2023-04-24T08:58:25;98107.81;;;8.30
35960;BMP280;22043;50.970;7.192;2023-04-24T09:00:55;98103.88;;;8.34
35960;BMP280;22043;50.970;7.192;2023-04-24T09:03:27;98105.16;;;8.26
35960;BMP280;22043;50.970;7.192;2023-04-24T09:05:55;98101.69;;;8.26
35960;BMP280;22043;50.970;7.192;2023-04-24T09:08:23;98132.03;;;8.40
35960;BMP280;22043;50.970;7.192;2023-04-24T09:10:49;98134.25;;;8.46
35960;BMP280;22043;50.970;7.192;2023-04-24T09:13:35;98136.34;;;8.38
35960;BMP280;22043;50.970;7.192;2023-04-24T09:16:00;98146.03;;;8.39
35960;BMP280;22043;50.970;7.192;2023-04-24T09:18:26;98129.19;;;8.28
35960;BMP280;22043;50.970;7.192;2023-04-24T09:21:08;98151.84;;;8.37
35960;BMP280;22043;50.970;7.192;2023-04-24T09:23:34;98145.88;;;8.26
35960;BMP280;22043;50.970;7.192;2023-04-24T09:26:01;98149.31;;;8.30
35960;BMP280;22043;50.970;7.192;2023-04-24T09:28:43;98169.56;;;8.46
35960;BMP280;22043;50.970;7.192;2023-04-24T09:31:12;98171.94;;;8.44
35960;BMP280;22043;50.970;7.192;2023-04-24T09:33:39;98160.88;;;8.34
35960;BMP280;22043;50.970;7.192;2023-04-24T09:36:05;98173.19;;;8.39
35960;BMP280;22043;50.970;7.192;2023-04-24T09:38:38;98179.22;;;8.47
35960;BMP280;22043;50.970;7.192;2023-04-24T09:41:08;98184.66;;;8.47
35960;BMP280;22043;50.970;7.192;2023-04-24T09:43:34;98200.94;;;8.47
35960;BMP280;22043;50.970;7.192;2023-04-24T09:46:05;98218.53;;;8.58
35960;BMP280;22043;50.970;7.192;2023-04-24T09:48:39;98203.03;;;8.59
35960;BMP280;22043;50.970;7.192;2023-04-24T09:51:06;98215.38;;;8.63
35960;BMP280;22043;50.970;7.192;2023-04-24T09:53:37;98231.88;;;8.53
35960;BMP280;22043;50.970;7.192;2023-04-24T09:56:09;98231.72;;;8.60
35960;BMP280;22043;50.970;7.192;2023-04-24T09:58:36;98229.34;;;8.62
35960;BMP280;22043;50.970;7.192;2023-04-24T10:01:02;98231.91;;;8.49
35960;BMP280;22043;50.970;7.192;2023-04-24T10:03:31;98232.53;;;8.57
35960;BMP280;22043;50.970;7.192;2023-04-24T10:06:04;98236.41;;;8.59
35960;BMP280;22043;50.970;7.192;2023-04-24T10:08:35;98239.50;;;8.58
35960;BMP280;22043;50.970;7.192;2023-04-24T10:11:01;98255.41;;;8.59
35960;BMP280;22043;50.970;7.192;2023-04-24T10:13:28;98251.31;;;8.51
35960;BMP280;22043;50.970;7.192;2023-04-24T10:15:54;98256.13;;;8.63
35960;BMP280;22043;50.970;7.192;2023-04-24T10:18:47;98266.06;;;8.70
35960;BMP280;22043;50.970;7.192;2023-04-24T10:21:19;98262.38;;;8.80
35960;BMP280;22043;50.970;7.192;2023-04-24T10:28:07;98274.91;;;9.14
35960;BMP280;22043;50.970;7.192;2023-04-24T10:31:32;98290.81;;;9.32
35960;BMP280;22043;50.970;7.192;2023-04-24T10:45:39;98296.56;;;9.70
35960;BMP280;22043;50.970;7.192;2023-04-24T10:48:08;98299.00;;;9.80
35960;BMP280;22043;50.970;7.192;2023-04-24T10:50:44;98295.72;;;9.89
35960;BMP280;22043;50.970;7.192;2023-04-24T10:53:16;98308.81;;;9.94
35960;BMP280;22043;50.970;7.192;2023-04-24T10:58:12;98298.91;;;10.00
35960;BMP280;22043;50.970;7.192;2023-04-24T11:00:39;98314.59;;;9.96
35960;BMP280;22043;50.970;7.192;2023-04-24T11:03:12;98339.75;;;10.00
35960;BMP280;22043;50.970;7.192;2023-04-24T11:10:57;98326.63;;;9.63
35960;BMP280;22043;50.970;7.192;2023-04-24T11:13:25;98344.84;;;9.66
35960;BMP280;22043;50.970;7.192;2023-04-24T11:16:43;98350.84;;;9.57
35960;BMP280;22043;50.970;7.192;2023-04-24T11:19:04;98344.72;;;9.53
35960;BMP280;22043;50.970;7.192;2023-04-24T11:22:03;98355.16;;;9.55
35960;BMP280;22043;50.970;7.192;2023-04-24T11:24:38;98361.13;;;9.49
35960;BMP280;22043;50.970;7.192;2023-04-24T11:27:19;98352.84;;;9.37
35960;BMP280;22043;50.970;7.192;2023-04-24T11:29:48;98361.00;;;9.37
35960;BMP280;22043;50.970;7.192;2023-04-24T11:34:50;98352.59;;;9.31
35960;BMP280;22043;50.970;7.192;2023-04-24T11:37:16;98351.97;;;9.23
35960;BMP280;22043;50.970;7.192;2023-04-24T11:39:42;98358.03;;;9.31
35960;BMP280;22043;50.970;7.192;2023-04-24T11:42:08;98358.69;;;9.35
35960;BMP280;22043;50.970;7.192;2023-04-24T11:44:34;98364.81;;;9.59
35960;BMP280;22043;50.970;7.192;2023-04-24T11:47:08;98365.94;;;9.78
35960;BMP280;22043;50.970;7.192;2023-04-24T11:49:33;98366.63;;;9.98
35960;BMP280;22043;50.970;7.192;2023-04-24T11:52:01;98368.09;;;10.19
35960;BMP280;22043;50.970;7.192;2023-04-24T11:54:27;98374.63;;;10.38
35960;BMP280;22043;50.970;7.192;2023-04-24T11:56:53;98379.88;;;10.61
35960;BMP280;22043;50.970;7.192;2023-04-24T11:59:19;98373.06;;;10.70
35960;BMP280;22043;50.970;7.192;2023-04-24T12:01:48;98387.59;;;10.79
35960;BMP280;22043;50.970;7.192;2023-04-24T12:04:18;98379.78;;;10.65
35960;BMP280;22043;50.970;7.192;2023-04-24T12:07:02;98391.22;;;10.44
35960;BMP280;22043;50.970;7.192;2023-04-24T12:09:29;98387.22;;;10.32
35960;BMP280;22043;50.970;7.192;2023-04-24T12:11:55;98390.66;;;10.20
35960;BMP280;22043;50.970;7.192;2023-04-24T12:14:22;98397.94;;;10.06
35960;BMP280;22043;50.970;7.192;2023-04-24T12:16:48;98404.16;;;10.07
35960;BMP280;22043;50.970;7.192;2023-04-24T12:19:22;98407.06;;;10.16
35960;BMP280;22043;50.970;7.192;2023-04-24T12:22:05;98409.59;;;10.23
35960;BMP280;22043;50.970;7.192;2023-04-24T12:24:31;98420.41;;;10.43
35960;BMP280;22043;50.970;7.192;2023-04-24T12:26:57;98421.97;;;10.44
35960;BMP280;22043;50.970;7.192;2023-04-24T12:29:24;98421.09;;;10.47
35960;BMP280;22043;50.970;7.192;2023-04-24T12:31:51;98407.81;;;10.49
35960;BMP280;22043;50.970;7.192;2023-04-24T12:34:18;98406.28;;;10.48
35960;BMP280;22043;50.970;7.192;2023-04-24T12:36:43;98408.66;;;10.46
35960;BMP280;22043;50.970;7.192;2023-04-24T12:39:17;98411.72;;;10.48
35960;BMP280;22043;50.970;7.192;2023-04-24T12:41:56;98425.00;;;10.46
35960;BMP280;22043;50.970;7.192;2023-04-24T12:44:30;98411.91;;;10.41
35960;BMP280;22043;50.970;7.192;2023-04-24T12:46:57;98416.50;;;10.44
35960;BMP280;22043;50.970;7.192;2023-04-24T12:49:23;98423.13;;;10.59
35960;BMP280;22043;50.970;7.192;2023-04-24T12:51:48;98424.06;;;10.69
35960;BMP280;22043;50.970;7.192;2023-04-24T12:54:14;98419.72;;;10.72
35960;BMP280;22043;50.970;7.192;2023-04-24T12:56:39;98425.06;;;10.75
35960;BMP280;22043;50.970;7.192;2023-04-24T12:59:05;98420.78;;;10.90
35960;BMP280;22043;50.970;7.192;2023-04-24T13:01:30;98412.84;;;10.96
35960;BMP280;22043;50.970;7.192;2023-04-24T13:03:56;98420.63;;;11.10
35960;BMP280;22043;50.970;7.192;2023-04-24T13:06:21;98423.50;;;11.19
35960;BMP280;22043;50.970;7.192;2023-04-24T13:08:47;98425.88;;;11.17
35960;BMP280;22043;50.970;7.192;2023-04-24T13:11:14;98419.56;;;11.20
35960;BMP280;22043;50.970;7.192;2023-04-24T13:13:40;98422.66;;;11.06
35960;BMP280;22043;50.970;7.192;2023-04-24T13:16:06;98418.88;;;11.04
35960;BMP280;22043;50.970;7.192;2023-04-24T13:18:33;98445.81;;;11.14
35960;BMP280;22043;50.970;7.192;2023-04-24T13:21:00;98434.69;;;11.09
35960;BMP280;22043;50.970;7.192;2023-04-24T13:23:26;98436.53;;;11.28
35960;BMP280;22043;50.970;7.192;2023-04-24T13:25:55;98441.25;;;11.40
35960;BMP280;22043;50.970;7.192;2023-04-24T13:28:25;98437.19;;;11.45
35960;BMP280;22043;50.970;7.192;2023-04-24T13:30:51;98432.94;;;11.57
35960;BMP280;22043;50.970;7.192;2023-04-24T13:33:18;98444.75;;;11.66
35960;BMP280;22043;50.970;7.192;2023-04-24T13:35:43;98425.66;;;11.66
35960;BMP280;22043;50.970;7.192;2023-04-24T13:38:09;98421.63;;;11.71
35960;BMP280;22043;50.970;7.192;2023-04-24T13:40:35;98435.03;;;11.65
35960;BMP280;22043;50.970;7.192;2023-04-24T13:43:04;98438.09;;;11.67
35960;BMP280;22043;50.970;7.192;2023-04-24T13:45:33;98431.03;;;11.70
35960;BMP280;22043;50.970;7.192;2023-04-24T13:47:59;98434.63;;;11.79
35960;BMP280;22043;50.970;7.192;2023-04-24T13:50:26;98438.97;;;11.77
35960;BMP280;22043;50.970;7.192;2023-04-24T13:52:52;98424.56;;;11.89
35960;BMP280;22043;50.970;7.192;2023-04-24T13:55:19;98434.25;;;12.03
35960;BMP280;22043;50.970;7.192;2023-04-24T13:57:47;98426.31;;;12.08
35960;BMP280;22043;50.970;7.192;2023-04-24T14:00:13;98430.47;;;12.13
35960;BMP280;22043;50.970;7.192;2023-04-24T14:02:39;98426.53;;;12.01
35960;BMP280;22043;50.970;7.192;2023-04-24T14:05:05;98436.78;;;11.97
35960;BMP280;22043;50.970;7.192;2023-04-24T14:07:31;98437.69;;;11.94
35960;BMP280;22043;50.970;7.192;2023-04-24T14:09:57;98429.59;;;11.78
35960;BMP280;22043;50.970;7.192;2023-04-24T14:12:27;98437.66;;;11.82
35960;BMP280;22043;50.970;7.192;2023-04-24T14:14:52;98440.19;;;11.63
35960;BMP280;22043;50.970;7.192;2023-04-24T14:17:18;98439.50;;;11.59
35960;BMP280;22043;50.970;7.192;2023-04-24T14:19:46;98462.00;;;11.50
35960;BMP280;22043;50.970;7.192;2023-04-24T14:22:12;98461.50;;;11.39
35960;BMP280;22043;50.970;7.192;2023-04-24T14:24:40;98452.56;;;11.39
35960;BMP280;22043;50.970;7.192;2023-04-24T14:27:11;98456.06;;;11.52
35960;BMP280;22043;50.970;7.192;2023-04-24T14:29:37;98462.97;;;11.69
35960;BMP280;22043;50.970;7.192;2023-04-24T14:32:04;98461.06;;;11.83
35960;BMP280;22043;50.970;7.192;2023-04-24T14:34:36;98454.38;;;11.96
35960;BMP280;22043;50.970;7.192;2023-04-24T14:37:03;98439.97;;;11.96
35960;BMP280;22043;50.970;7.192;2023-04-24T14:39:29;98434.03;;;12.10
35960;BMP280;22043;50.970;7.192;2023-04-24T14:41:58;98445.06;;;12.19
35960;BMP280;22043;50.970;7.192;2023-04-24T14:44:27;98437.81;;;12.16
35960;BMP280;22043;50.970;7.192;2023-04-24T14:46:55;98437.66;;;12.07
35960;BMP280;22043;50.970;7.192;2023-04-24T14:49:21;98463.88;;;12.04
35960;BMP280;22043;50.970;7.192;2023-04-24T14:51:47;98443.75;;;12.11
35960;BMP280;22043;50.970;7.192;2023-04-24T14:54:13;98459.50;;;12.07
35960;BMP280;22043;50.970;7.192;2023-04-24T14:56:39;98452.75;;;12.24
35960;BMP280;22043;50.970;7.192;2023-04-24T14:59:06;98453.25;;;12.32
35960;BMP280;22043;50.970;7.192;2023-04-24T15:01:35;98459.47;;;12.32
35960;BMP280;22043;50.970;7.192;2023-04-24T15:04:03;98456.88;;;12.42
35960;BMP280;22043;50.970;7.192;2023-04-24T15:06:32;98466.03;;;12.48
35960;BMP280;22043;50.970;7.192;2023-04-24T15:08:58;98467.34;;;12.56